sensor_id;sensor_type;location;lat;lon;timestamp;P1;durP1;ratioP1;P2;durP2;ratioP2
74415;SDS011;62850;42.428;25.618;2023-05-19T00:01:38;13.18;;;4.63;;
74415;SDS011;62850;42.428;25.618;2023-05-19T00:04:08;9.63;;;5.10;;
74415;SDS011;62850;42.428;25.618;2023-05-19T00:06:36;8.85;;;4.53;;
74415;SDS011;62850;42.428;25.618;2023-05-19T00:09:06;9.32;;;5.07;;
74415;SDS011;62850;42.428;25.618;2023-05-19T00:11:34;8.18;;;4.63;;
74415;SDS011;62850;42.428;25.618;2023-05-19T00:14:01;9.77;;;4.85;;
74415;SDS011;62850;42.428;25.618;2023-05-19T00:16:28;8.63;;;4.85;;
74415;SDS011;62850;42.428;25.618;2023-05-19T00:18:56;8.30;;;5.03;;
74415;SDS011;62850;42.428;25.618;2023-05-19T00:21:24;10.20;;;5.15;;
74415;SDS011;62850;42.428;25.618;2023-05-19T00:23:49;11.93;;;5.88;;
74415;SDS011;62850;42.428;25.618;2023-05-19T00:26:15;8.48;;;5.07;;
74415;SDS011;62850;42.428;25.618;2023-05-19T00:28:41;8.00;;;4.93;;
74415;SDS011;62850;42.428;25.618;2023-05-19T00:31:06;9.60;;;5.07;;
74415;SDS011;62850;42.428;25.618;2023-05-19T00:33:32;9.57;;;5.03;;
74415;SDS011;62850;42.428;25.618;2023-05-19T00:36:01;7.80;;;5.15;;
74415;SDS011;62850;42.428;25.618;2023-05-19T00:38:29;11.35;;;5.18;;
74415;SDS011;62850;42.428;25.618;2023-05-19T00:40:55;8.32;;;5.05;;
74415;SDS011;62850;42.428;25.618;2023-05-19T00:43:21;8.23;;;4.78;;
74415;SDS011;62850;42.428;25.618;2023-05-19T00:45:46;7.35;;;4.75;;
74415;SDS011;62850;42.428;25.618;2023-05-19T00:48:12;8.00;;;4.75;;
74415;SDS011;62850;42.428;25.618;2023-05-19T00:50:37;8.65;;;5.18;;
74415;SDS011;62850;42.428;25.618;2023-05-19T00:53:04;7.38;;;4.90;;
74415;SDS011;62850;42.428;25.618;2023-05-19T00:55:30;11.77;;;5.53;;
74415;SDS011;62850;42.428;25.618;2023-05-19T00:57:57;10.32;;;5.47;;
74415;SDS011;62850;42.428;25.618;2023-05-19T01:00:23;11.40;;;5.63;;
74415;SDS011;62850;42.428;25.618;2023-05-19T01:02:48;10.13;;;5.28;;
74415;SDS011;62850;42.428;25.618;2023-05-19T01:05:14;9.70;;;5.43;;
74415;SDS011;62850;42.428;25.618;2023-05-19T01:07:41;8.98;;;4.60;;
74415;SDS011;62850;42.428;25.618;2023-05-19T01:10:06;8.27;;;5.22;;
74415;SDS011;62850;42.428;25.618;2023-05-19T01:12:33;11.25;;;5.30;;
74415;SDS011;62850;42.428;25.618;2023-05-19T01:14:59;7.95;;;5.00;;
74415;SDS011;62850;42.428;25.618;2023-05-19T01:17:29;8.57;;;4.40;;
74415;SDS011;62850;42.428;25.618;2023-05-19T01:20:06;7.95;;;4.90;;
74415;SDS011;62850;42.428;25.618;2023-05-19T01:31:20;9.23;;;5.68;;
74415;SDS011;62850;42.428;25.618;2023-05-19T01:33:48;10.45;;;5.32;;
74415;SDS011;62850;42.428;25.618;2023-05-19T01:36:17;8.05;;;5.40;;
74415;SDS011;62850;42.428;25.618;2023-05-19T01:38:44;12.27;;;6.10;;
74415;SDS011;62850;42.428;25.618;2023-05-19T01:41:11;10.82;;;5.90;;
74415;SDS011;62850;42.428;25.618;2023-05-19T01:43:38;10.05;;;5.22;;
74415;SDS011;62850;42.428;25.618;2023-05-19T01:46:04;9.35;;;5.45;;
74415;SDS011;62850;42.428;25.618;2023-05-19T01:48:31;9.75;;;5.80;;
74415;SDS011;62850;42.428;25.618;2023-05-19T01:50:57;9.48;;;5.90;;
74415;SDS011;62850;42.428;25.618;2023-05-19T01:53:23;9.95;;;6.10;;
74415;SDS011;62850;42.428;25.618;2023-05-19T01:55:51;8.80;;;5.45;;
74415;SDS011;62850;42.428;25.618;2023-05-19T01:58:34;8.38;;;5.80;;
74415;SDS011;62850;42.428;25.618;2023-05-19T02:01:29;8.88;;;5.78;;
74415;SDS011;62850;42.428;25.618;2023-05-19T02:04:06;10.75;;;5.63;;
74415;SDS011;62850;42.428;25.618;2023-05-19T02:06:45;10.50;;;6.20;;
74415;SDS011;62850;42.428;25.618;2023-05-19T02:09:25;10.05;;;6.10;;
74415;SDS011;62850;42.428;25.618;2023-05-19T02:12:00;11.45;;;6.60;;
74415;SDS011;62850;42.428;25.618;2023-05-19T02:19:44;9.23;;;6.00;;
74415;SDS011;62850;42.428;25.618;2023-05-19T02:22:10;10.10;;;6.25;;
74415;SDS011;62850;42.428;25.618;2023-05-19T02:24:35;9.05;;;6.25;;
74415;SDS011;62850;42.428;25.618;2023-05-19T02:27:01;16.02;;;6.20;;
74415;SDS011;62850;42.428;25.618;2023-05-19T02:29:27;10.95;;;6.80;;
74415;SDS011;62850;42.428;25.618;2023-05-19T02:31:53;11.60;;;6.53;;
74415;SDS011;62850;42.428;25.618;2023-05-19T02:34:18;10.57;;;5.45;;
74415;SDS011;62850;42.428;25.618;2023-05-19T02:36:43;10.10;;;5.40;;
74415;SDS011;62850;42.428;25.618;2023-05-19T02:39:09;8.65;;;5.55;;
74415;SDS011;62850;42.428;25.618;2023-05-19T02:41:35;9.57;;;6.10;;
74415;SDS011;62850;42.428;25.618;2023-05-19T02:44:01;11.63;;;6.45;;
74415;SDS011;62850;42.428;25.618;2023-05-19T02:46:27;11.20;;;5.93;;
74415;SDS011;62850;42.428;25.618;2023-05-19T02:48:52;12.73;;;7.07;;
74415;SDS011;62850;42.428;25.618;2023-05-19T02:51:17;9.88;;;5.80;;
74415;SDS011;62850;42.428;25.618;2023-05-19T02:53:43;13.45;;;6.60;;
74415;SDS011;62850;42.428;25.618;2023-05-19T02:56:08;13.00;;;6.40;;
74415;SDS011;62850;42.428;25.618;2023-05-19T02:58:35;15.63;;;6.40;;
74415;SDS011;62850;42.428;25.618;2023-05-19T03:01:00;9.77;;;6.10;;
74415;SDS011;62850;42.428;25.618;2023-05-19T03:03:26;12.40;;;6.15;;
74415;SDS011;62850;42.428;25.618;2023-05-19T03:05:52;11.75;;;5.72;;
74415;SDS011;62850;42.428;25.618;2023-05-19T03:08:18;11.13;;;6.28;;
74415;SDS011;62850;42.428;25.618;2023-05-19T03:10:47;11.30;;;6.68;;
74415;SDS011;62850;42.428;25.618;2023-05-19T03:13:12;10.77;;;6.53;;
74415;SDS011;62850;42.428;25.618;2023-05-19T03:15:38;13.60;;;6.57;;
74415;SDS011;62850;42.428;25.618;2023-05-19T03:18:03;9.23;;;6.30;;
74415;SDS011;62850;42.428;25.618;2023-05-19T03:20:29;12.18;;;6.55;;
74415;SDS011;62850;42.428;25.618;2023-05-19T03:22:55;12.60;;;5.80;;
74415;SDS011;62850;42.428;25.618;2023-05-19T03:25:20;12.23;;;6.38;;
74415;SDS011;62850;42.428;25.618;2023-05-19T03:27:46;11.80;;;5.88;;
74415;SDS011;62850;42.428;25.618;2023-05-19T03:30:12;12.02;;;6.65;;
74415;SDS011;62850;42.428;25.618;2023-05-19T03:32:38;11.65;;;6.20;;
74415;SDS011;62850;42.428;25.618;2023-05-19T03:35:04;15.73;;;5.93;;
74415;SDS011;62850;42.428;25.618;2023-05-19T03:37:30;11.80;;;5.45;;
74415;SDS011;62850;42.428;25.618;2023-05-19T03:39:57;11.02;;;5.93;;
74415;SDS011;62850;42.428;25.618;2023-05-19T03:42:23;12.63;;;6.85;;
74415;SDS011;62850;42.428;25.618;2023-05-19T03:44:48;11.25;;;6.18;;
74415;SDS011;62850;42.428;25.618;2023-05-19T03:47:14;11.98;;;6.40;;
74415;SDS011;62850;42.428;25.618;2023-05-19T03:49:40;11.50;;;6.53;;
74415;SDS011;62850;42.428;25.618;2023-05-19T03:52:05;10.70;;;6.25;;
74415;SDS011;62850;42.428;25.618;2023-05-19T03:54:31;10.93;;;6.70;;
74415;SDS011;62850;42.428;25.618;2023-05-19T03:56:56;11.95;;;6.55;;
74415;SDS011;62850;42.428;25.618;2023-05-19T03:59:22;10.82;;;6.20;;
74415;SDS011;62850;42.428;25.618;2023-05-19T04:01:48;10.95;;;6.35;;
74415;SDS011;62850;42.428;25.618;2023-05-19T04:04:14;11.70;;;5.95;;
74415;SDS011;62850;42.428;25.618;2023-05-19T04:06:39;10.82;;;6.72;;
74415;SDS011;62850;42.428;25.618;2023-05-19T04:09:10;10.80;;;6.78;;
74415;SDS011;62850;42.428;25.618;2023-05-19T04:11:37;13.15;;;7.13;;
74415;SDS011;62850;42.428;25.618;2023-05-19T04:14:04;14.27;;;6.35;;
74415;SDS011;62850;42.428;25.618;2023-05-19T04:16:30;10.73;;;6.22;;
74415;SDS011;62850;42.428;25.618;2023-05-19T04:18:55;10.77;;;6.15;;
74415;SDS011;62850;42.428;25.618;2023-05-19T04:21:21;13.05;;;6.43;;
74415;SDS011;62850;42.428;25.618;2023-05-19T04:23:47;10.32;;;6.38;;
74415;SDS011;62850;42.428;25.618;2023-05-19T04:26:12;12.20;;;6.45;;
74415;SDS011;62850;42.428;25.618;2023-05-19T04:28:39;12.05;;;6.00;;
74415;SDS011;62850;42.428;25.618;2023-05-19T04:31:06;9.60;;;6.45;;
74415;SDS011;62850;42.428;25.618;2023-05-19T04:33:35;8.50;;;6.18;;
74415;SDS011;62850;42.428;25.618;2023-05-19T04:36:01;11.98;;;6.57;;
74415;SDS011;62850;42.428;25.618;2023-05-19T04:38:29;11.48;;;7.10;;
74415;SDS011;62850;42.428;25.618;2023-05-19T04:40:55;14.20;;;6.53;;
74415;SDS011;62850;42.428;25.618;2023-05-19T04:43:21;12.90;;;7.05;;
74415;SDS011;62850;42.428;25.618;2023-05-19T04:45:46;10.68;;;6.05;;
74415;SDS011;62850;42.428;25.618;2023-05-19T04:48:14;12.48;;;6.65;;
74415;SDS011;62850;42.428;25.618;2023-05-19T04:50:39;10.02;;;6.55;;
74415;SDS011;62850;42.428;25.618;2023-05-19T04:53:07;11.50;;;6.07;;
74415;SDS011;62850;42.428;25.618;2023-05-19T04:55:35;14.38;;;6.43;;
74415;SDS011;62850;42.428;25.618;2023-05-19T04:58:02;9.48;;;6.13;;
74415;SDS011;62850;42.428;25.618;2023-05-19T05:00:28;13.90;;;6.88;;
74415;SDS011;62850;42.428;25.618;2023-05-19T05:02:53;11.90;;;6.47;;
74415;SDS011;62850;42.428;25.618;2023-05-19T05:05:21;12.88;;;7.22;;
74415;SDS011;62850;42.428;25.618;2023-05-19T05:07:47;11.25;;;6.13;;
74415;SDS011;62850;42.428;25.618;2023-05-19T05:10:13;9.75;;;5.70;;
74415;SDS011;62850;42.428;25.618;2023-05-19T05:12:39;13.68;;;6.93;;
74415;SDS011;62850;42.428;25.618;2023-05-19T05:15:05;11.98;;;6.68;;
74415;SDS011;62850;42.428;25.618;2023-05-19T05:17:31;11.07;;;6.47;;
74415;SDS011;62850;42.428;25.618;2023-05-19T05:20:00;10.32;;;5.20;;
74415;SDS011;62850;42.428;25.618;2023-05-19T05:22:26;10.40;;;6.75;;
74415;SDS011;62850;42.428;25.618;2023-05-19T05:24:52;11.05;;;5.70;;
74415;SDS011;62850;42.428;25.618;2023-05-19T05:27:18;9.95;;;5.53;;
74415;SDS011;62850;42.428;25.618;2023-05-19T05:29:43;9.68;;;6.47;;
74415;SDS011;62850;42.428;25.618;2023-05-19T05:32:08;11.40;;;5.70;;
74415;SDS011;62850;42.428;25.618;2023-05-19T05:34:34;12.85;;;6.97;;
74415;SDS011;62850;42.428;25.618;2023-05-19T05:37:02;12.73;;;6.43;;
74415;SDS011;62850;42.428;25.618;2023-05-19T05:39:27;13.02;;;6.28;;
74415;SDS011;62850;42.428;25.618;2023-05-19T05:41:53;10.52;;;6.18;;
74415;SDS011;62850;42.428;25.618;2023-05-19T05:44:18;10.85;;;6.07;;
74415;SDS011;62850;42.428;25.618;2023-05-19T05:46:44;10.18;;;6.60;;
74415;SDS011;62850;42.428;25.618;2023-05-19T05:49:10;15.07;;;6.85;;
74415;SDS011;62850;42.428;25.618;2023-05-19T05:51:37;9.25;;;5.40;;
74415;SDS011;62850;42.428;25.618;2023-05-19T05:54:03;12.07;;;6.95;;
74415;SDS011;62850;42.428;25.618;2023-05-19T05:56:30;12.68;;;5.90;;
74415;SDS011;62850;42.428;25.618;2023-05-19T05:58:57;11.18;;;7.00;;
74415;SDS011;62850;42.428;25.618;2023-05-19T06:01:23;9.90;;;6.55;;
74415;SDS011;62850;42.428;25.618;2023-05-19T06:03:49;14.25;;;7.85;;
74415;SDS011;62850;42.428;25.618;2023-05-19T06:06:14;12.52;;;7.43;;
74415;SDS011;62850;42.428;25.618;2023-05-19T06:08:40;13.63;;;7.60;;
74415;SDS011;62850;42.428;25.618;2023-05-19T06:11:05;13.50;;;8.30;;
74415;SDS011;62850;42.428;25.618;2023-05-19T06:13:33;14.75;;;7.45;;
74415;SDS011;62850;42.428;25.618;2023-05-19T06:16:00;15.98;;;8.48;;
74415;SDS011;62850;42.428;25.618;2023-05-19T06:18:26;13.13;;;6.75;;
74415;SDS011;62850;42.428;25.618;2023-05-19T06:20:51;12.23;;;7.50;;
74415;SDS011;62850;42.428;25.618;2023-05-19T06:23:17;15.00;;;7.88;;
74415;SDS011;62850;42.428;25.618;2023-05-19T06:25:42;11.88;;;7.65;;
74415;SDS011;62850;42.428;25.618;2023-05-19T06:28:08;16.00;;;6.88;;
74415;SDS011;62850;42.428;25.618;2023-05-19T06:30:33;14.70;;;8.02;;
74415;SDS011;62850;42.428;25.618;2023-05-19T06:33:00;14.57;;;7.80;;
74415;SDS011;62850;42.428;25.618;2023-05-19T06:35:27;17.63;;;7.60;;
74415;SDS011;62850;42.428;25.618;2023-05-19T06:37:52;15.80;;;8.82;;
74415;SDS011;62850;42.428;25.618;2023-05-19T06:40:19;13.15;;;7.00;;
74415;SDS011;62850;42.428;25.618;2023-05-19T06:42:45;14.27;;;7.65;;
74415;SDS011;62850;42.428;25.618;2023-05-19T06:45:10;12.18;;;7.72;;
74415;SDS011;62850;42.428;25.618;2023-05-19T06:47:36;13.15;;;7.80;;
74415;SDS011;62850;42.428;25.618;2023-05-19T06:50:02;13.05;;;7.90;;
74415;SDS011;62850;42.428;25.618;2023-05-19T06:52:27;16.42;;;8.02;;
74415;SDS011;62850;42.428;25.618;2023-05-19T06:54:53;14.45;;;7.95;;
74415;SDS011;62850;42.428;25.618;2023-05-19T06:57:18;11.73;;;6.88;;
74415;SDS011;62850;42.428;25.618;2023-05-19T06:59:44;18.33;;;8.57;;
74415;SDS011;62850;42.428;25.618;2023-05-19T07:02:10;13.68;;;7.40;;
74415;SDS011;62850;42.428;25.618;2023-05-19T07:04:36;17.15;;;8.32;;
74415;SDS011;62850;42.428;25.618;2023-05-19T07:07:01;12.02;;;7.53;;
74415;SDS011;62850;42.428;25.618;2023-05-19T07:09:27;16.40;;;8.35;;
74415;SDS011;62850;42.428;25.618;2023-05-19T07:11:52;13.95;;;8.07;;
74415;SDS011;62850;42.428;25.618;2023-05-19T07:14:20;11.60;;;7.00;;
74415;SDS011;62850;42.428;25.618;2023-05-19T07:16:45;12.02;;;7.05;;
74415;SDS011;62850;42.428;25.618;2023-05-19T07:19:11;13.57;;;7.13;;
74415;SDS011;62850;42.428;25.618;2023-05-19T07:21:36;11.57;;;6.95;;
74415;SDS011;62850;42.428;25.618;2023-05-19T07:24:02;11.55;;;8.02;;
74415;SDS011;62850;42.428;25.618;2023-05-19T07:26:27;12.77;;;7.47;;
74415;SDS011;62850;42.428;25.618;2023-05-19T07:28:53;12.25;;;7.93;;
74415;SDS011;62850;42.428;25.618;2023-05-19T07:31:19;13.38;;;7.57;;
74415;SDS011;62850;42.428;25.618;2023-05-19T07:33:44;9.82;;;6.05;;
74415;SDS011;62850;42.428;25.618;2023-05-19T07:36:10;13.40;;;7.13;;
74415;SDS011;62850;42.428;25.618;2023-05-19T07:38:35;12.88;;;7.43;;
74415;SDS011;62850;42.428;25.618;2023-05-19T07:41:01;10.88;;;6.88;;
74415;SDS011;62850;42.428;25.618;2023-05-19T07:43:27;11.32;;;7.13;;
74415;SDS011;62850;42.428;25.618;2023-05-19T07:45:53;16.80;;;6.68;;
74415;SDS011;62850;42.428;25.618;2023-05-19T07:48:20;11.73;;;6.88;;
74415;SDS011;62850;42.428;25.618;2023-05-19T07:50:47;13.48;;;7.40;;
74415;SDS011;62850;42.428;25.618;2023-05-19T07:53:13;11.80;;;7.20;;
74415;SDS011;62850;42.428;25.618;2023-05-19T07:55:39;11.18;;;6.80;;
74415;SDS011;62850;42.428;25.618;2023-05-19T07:58:05;10.85;;;6.70;;
74415;SDS011;62850;42.428;25.618;2023-05-19T08:00:30;16.13;;;6.60;;
74415;SDS011;62850;42.428;25.618;2023-05-19T08:02:56;13.43;;;7.28;;
74415;SDS011;62850;42.428;25.618;2023-05-19T08:05:22;10.18;;;6.93;;
74415;SDS011;62850;42.428;25.618;2023-05-19T08:07:47;12.43;;;7.32;;
74415;SDS011;62850;42.428;25.618;2023-05-19T08:10:13;12.52;;;7.05;;
74415;SDS011;62850;42.428;25.618;2023-05-19T08:12:38;10.05;;;6.60;;
74415;SDS011;62850;42.428;25.618;2023-05-19T08:15:04;10.18;;;6.72;;
74415;SDS011;62850;42.428;25.618;2023-05-19T08:17:31;13.20;;;7.05;;
74415;SDS011;62850;42.428;25.618;2023-05-19T08:19:56;9.65;;;6.40;;
74415;SDS011;62850;42.428;25.618;2023-05-19T08:22:22;11.27;;;7.03;;
74415;SDS011;62850;42.428;25.618;2023-05-19T08:24:47;15.55;;;7.25;;
74415;SDS011;62850;42.428;25.618;2023-05-19T08:27:16;9.80;;;6.45;;
74415;SDS011;62850;42.428;25.618;2023-05-19T08:29:41;13.90;;;6.30;;
74415;SDS011;62850;42.428;25.618;2023-05-19T08:32:07;10.25;;;6.43;;
74415;SDS011;62850;42.428;25.618;2023-05-19T08:34:32;12.60;;;5.82;;
74415;SDS011;62850;42.428;25.618;2023-05-19T08:36:58;13.13;;;6.90;;
74415;SDS011;62850;42.428;25.618;2023-05-19T08:39:24;11.15;;;6.45;;
74415;SDS011;62850;42.428;25.618;2023-05-19T08:41:52;12.93;;;7.45;;
74415;SDS011;62850;42.428;25.618;2023-05-19T08:44:18;11.70;;;7.07;;
74415;SDS011;62850;42.428;25.618;2023-05-19T08:46:44;14.27;;;6.53;;
74415;SDS011;62850;42.428;25.618;2023-05-19T08:49:12;13.13;;;7.10;;
74415;SDS011;62850;42.428;25.618;2023-05-19T08:54:18;11.55;;;7.00;;
74415;SDS011;62850;42.428;25.618;2023-05-19T08:56:46;10.88;;;6.93;;
74415;SDS011;62850;42.428;25.618;2023-05-19T08:59:12;13.27;;;6.85;;
74415;SDS011;62850;42.428;25.618;2023-05-19T09:01:43;12.75;;;7.88;;
74415;SDS011;62850;42.428;25.618;2023-05-19T09:04:10;12.25;;;6.38;;
74415;SDS011;62850;42.428;25.618;2023-05-19T09:06:36;13.55;;;6.85;;
74415;SDS011;62850;42.428;25.618;2023-05-19T09:09:05;11.13;;;7.05;;
74415;SDS011;62850;42.428;25.618;2023-05-19T09:11:31;11.98;;;6.85;;
74415;SDS011;62850;42.428;25.618;2023-05-19T09:13:57;10.07;;;6.25;;
74415;SDS011;62850;42.428;25.618;2023-05-19T09:16:23;10.05;;;6.60;;
74415;SDS011;62850;42.428;25.618;2023-05-19T09:18:53;11.13;;;7.00;;
74415;SDS011;62850;42.428;25.618;2023-05-19T09:21:25;12.52;;;7.22;;
74415;SDS011;62850;42.428;25.618;2023-05-19T09:23:52;13.80;;;6.78;;
74415;SDS011;62850;42.428;25.618;2023-05-19T09:26:20;11.82;;;6.78;;
74415;SDS011;62850;42.428;25.618;2023-05-19T09:28:47;9.60;;;6.60;;
74415;SDS011;62850;42.428;25.618;2023-05-19T09:31:13;11.23;;;6.72;;
74415;SDS011;62850;42.428;25.618;2023-05-19T09:33:39;10.73;;;6.28;;
74415;SDS011;62850;42.428;25.618;2023-05-19T09:36:08;10.90;;;6.47;;
74415;SDS011;62850;42.428;25.618;2023-05-19T09:38:35;10.23;;;6.65;;
74415;SDS011;62850;42.428;25.618;2023-05-19T09:41:01;11.23;;;6.57;;
74415;SDS011;62850;42.428;25.618;2023-05-19T09:43:28;10.27;;;6.25;;
74415;SDS011;62850;42.428;25.618;2023-05-19T09:45:58;9.23;;;6.20;;
74415;SDS011;62850;42.428;25.618;2023-05-19T09:48:30;12.13;;;6.10;;
74415;SDS011;62850;42.428;25.618;2023-05-19T09:50:55;10.55;;;6.22;;
74415;SDS011;62850;42.428;25.618;2023-05-19T09:53:22;8.73;;;5.95;;
74415;SDS011;62850;42.428;25.618;2023-05-19T09:55:49;8.90;;;5.55;;
74415;SDS011;62850;42.428;25.618;2023-05-19T09:58:19;10.70;;;6.13;;
74415;SDS011;62850;42.428;25.618;2023-05-19T10:00:45;8.38;;;6.13;;
74415;SDS011;62850;42.428;25.618;2023-05-19T10:03:11;7.38;;;5.30;;
74415;SDS011;62850;42.428;25.618;2023-05-19T10:05:37;8.82;;;5.60;;
74415;SDS011;62850;42.428;25.618;2023-05-19T10:08:05;9.98;;;5.95;;
74415;SDS011;62850;42.428;25.618;2023-05-19T10:10:34;8.38;;;5.50;;
74415;SDS011;62850;42.428;25.618;2023-05-19T10:13:01;8.23;;;6.03;;
74415;SDS011;62850;42.428;25.618;2023-05-19T10:15:28;14.02;;;5.65;;
74415;SDS011;62850;42.428;25.618;2023-05-19T10:17:54;12.77;;;6.13;;
74415;SDS011;62850;42.428;25.618;2023-05-19T10:20:20;8.90;;;5.82;;
74415;SDS011;62850;42.428;25.618;2023-05-19T10:22:46;10.20;;;5.80;;
74415;SDS011;62850;42.428;25.618;2023-05-19T10:25:12;12.98;;;6.60;;
74415;SDS011;62850;42.428;25.618;2023-05-19T10:27:45;11.60;;;6.22;;
74415;SDS011;62850;42.428;25.618;2023-05-19T10:30:20;8.57;;;5.65;;
74415;SDS011;62850;42.428;25.618;2023-05-19T10:32:52;11.52;;;5.28;;
74415;SDS011;62850;42.428;25.618;2023-05-19T10:46:07;10.85;;;6.47;;
74415;SDS011;62850;42.428;25.618;2023-05-19T10:48:34;10.55;;;6.60;;
74415;SDS011;62850;42.428;25.618;2023-05-19T10:51:03;10.82;;;6.57;;
74415;SDS011;62850;42.428;25.618;2023-05-19T10:53:32;9.18;;;6.38;;
74415;SDS011;62850;42.428;25.618;2023-05-19T10:56:00;9.75;;;6.03;;
74415;SDS011;62850;42.428;25.618;2023-05-19T10:59:04;12.07;;;6.18;;
74415;SDS011;62850;42.428;25.618;2023-05-19T11:01:22;13.52;;;6.95;;
74415;SDS011;62850;42.428;25.618;2023-05-19T11:03:55;10.60;;;6.30;;
74415;SDS011;62850;42.428;25.618;2023-05-19T11:06:24;10.55;;;6.63;;
74415;SDS011;62850;42.428;25.618;2023-05-19T11:09:01;10.90;;;6.82;;
74415;SDS011;62850;42.428;25.618;2023-05-19T11:11:44;10.45;;;6.18;;
74415;SDS011;62850;42.428;25.618;2023-05-19T11:14:11;10.07;;;6.82;;
74415;SDS011;62850;42.428;25.618;2023-05-19T11:16:38;10.23;;;6.43;;
74415;SDS011;62850;42.428;25.618;2023-05-19T11:19:16;11.20;;;6.75;;
74415;SDS011;62850;42.428;25.618;2023-05-19T11:21:47;9.20;;;6.43;;
74415;SDS011;62850;42.428;25.618;2023-05-19T11:29:49;11.30;;;6.50;;
74415;SDS011;62850;42.428;25.618;2023-05-19T11:32:15;9.88;;;6.15;;
74415;SDS011;62850;42.428;25.618;2023-05-19T11:34:43;9.45;;;6.00;;
74415;SDS011;62850;42.428;25.618;2023-05-19T11:37:09;7.88;;;5.30;;
74415;SDS011;62850;42.428;25.618;2023-05-19T11:39:35;9.00;;;6.47;;
74415;SDS011;62850;42.428;25.618;2023-05-19T11:42:01;10.25;;;6.10;;
74415;SDS011;62850;42.428;25.618;2023-05-19T11:44:27;9.88;;;6.35;;
74415;SDS011;62850;42.428;25.618;2023-05-19T11:46:53;13.65;;;6.10;;
74415;SDS011;62850;42.428;25.618;2023-05-19T11:49:18;9.38;;;5.90;;
74415;SDS011;62850;42.428;25.618;2023-05-19T11:51:44;10.15;;;5.72;;
74415;SDS011;62850;42.428;25.618;2023-05-19T11:54:10;8.15;;;5.63;;
74415;SDS011;62850;42.428;25.618;2023-05-19T11:56:40;12.75;;;6.93;;
74415;SDS011;62850;42.428;25.618;2023-05-19T11:59:06;9.00;;;6.55;;
74415;SDS011;62850;42.428;25.618;2023-05-19T12:01:34;9.75;;;6.15;;
74415;SDS011;62850;42.428;25.618;2023-05-19T12:04:00;10.77;;;6.07;;
74415;SDS011;62850;42.428;25.618;2023-05-19T12:06:27;11.20;;;6.22;;
74415;SDS011;62850;42.428;25.618;2023-05-19T12:08:53;8.75;;;6.15;;
74415;SDS011;62850;42.428;25.618;2023-05-19T12:11:19;10.20;;;6.15;;
74415;SDS011;62850;42.428;25.618;2023-05-19T12:13:48;10.20;;;6.25;;
74415;SDS011;62850;42.428;25.618;2023-05-19T12:16:15;10.43;;;5.60;;
74415;SDS011;62850;42.428;25.618;2023-05-19T12:18:44;8.88;;;6.10;;
74415;SDS011;62850;42.428;25.618;2023-05-19T12:21:10;11.00;;;6.07;;
74415;SDS011;62850;42.428;25.618;2023-05-19T12:23:36;11.35;;;6.22;;
74415;SDS011;62850;42.428;25.618;2023-05-19T12:26:02;11.80;;;6.15;;
74415;SDS011;62850;42.428;25.618;2023-05-19T12:28:28;11.63;;;6.72;;
74415;SDS011;62850;42.428;25.618;2023-05-19T12:30:55;11.15;;;6.35;;
74415;SDS011;62850;42.428;25.618;2023-05-19T12:33:22;10.73;;;5.88;;
74415;SDS011;62850;42.428;25.618;2023-05-19T12:35:48;13.18;;;6.15;;
74415;SDS011;62850;42.428;25.618;2023-05-19T12:38:14;12.30;;;5.97;;
74415;SDS011;62850;42.428;25.618;2023-05-19T12:40:41;13.02;;;5.45;;
74415;SDS011;62850;42.428;25.618;2023-05-19T12:43:07;10.90;;;5.78;;
74415;SDS011;62850;42.428;25.618;2023-05-19T12:45:36;15.60;;;6.32;;
74415;SDS011;62850;42.428;25.618;2023-05-19T12:48:12;12.30;;;6.30;;
74415;SDS011;62850;42.428;25.618;2023-05-19T12:50:42;12.57;;;5.93;;
74415;SDS011;62850;42.428;25.618;2023-05-19T12:53:11;11.40;;;5.90;;
74415;SDS011;62850;42.428;25.618;2023-05-19T12:55:37;9.77;;;4.57;;
74415;SDS011;62850;42.428;25.618;2023-05-19T12:58:05;9.73;;;4.80;;
74415;SDS011;62850;42.428;25.618;2023-05-19T13:00:31;13.32;;;4.53;;
74415;SDS011;62850;42.428;25.618;2023-05-19T13:05:27;8.80;;;5.30;;
74415;SDS011;62850;42.428;25.618;2023-05-19T13:07:57;8.77;;;5.18;;
74415;SDS011;62850;42.428;25.618;2023-05-19T13:10:23;10.38;;;5.25;;
74415;SDS011;62850;42.428;25.618;2023-05-19T13:12:51;17.10;;;6.90;;
74415;SDS011;62850;42.428;25.618;2023-05-19T13:15:24;11.70;;;5.40;;
74415;SDS011;62850;42.428;25.618;2023-05-19T13:17:51;10.13;;;5.85;;
74415;SDS011;62850;42.428;25.618;2023-05-19T13:20:17;17.13;;;6.15;;
74415;SDS011;62850;42.428;25.618;2023-05-19T13:22:43;10.77;;;6.68;;
74415;SDS011;62850;42.428;25.618;2023-05-19T13:25:09;12.40;;;6.10;;
74415;SDS011;62850;42.428;25.618;2023-05-19T13:27:35;13.60;;;6.28;;
74415;SDS011;62850;42.428;25.618;2023-05-19T13:30:01;11.68;;;5.78;;
74415;SDS011;62850;42.428;25.618;2023-05-19T13:32:27;11.88;;;6.35;;
74415;SDS011;62850;42.428;25.618;2023-05-19T13:34:53;8.48;;;5.35;;
74415;SDS011;62850;42.428;25.618;2023-05-19T13:37:18;9.98;;;5.70;;
74415;SDS011;62850;42.428;25.618;2023-05-19T13:39:44;9.25;;;5.85;;
74415;SDS011;62850;42.428;25.618;2023-05-19T13:42:09;8.27;;;4.97;;
74415;SDS011;62850;42.428;25.618;2023-05-19T13:44:35;7.63;;;4.68;;
74415;SDS011;62850;42.428;25.618;2023-05-19T13:47:00;9.18;;;4.85;;
74415;SDS011;62850;42.428;25.618;2023-05-19T13:49:26;6.85;;;4.55;;
74415;SDS011;62850;42.428;25.618;2023-05-19T13:51:54;6.78;;;4.32;;
74415;SDS011;62850;42.428;25.618;2023-05-19T13:54:20;8.77;;;4.30;;
74415;SDS011;62850;42.428;25.618;2023-05-19T13:56:46;7.18;;;4.50;;
74415;SDS011;62850;42.428;25.618;2023-05-19T13:59:12;8.20;;;5.03;;
74415;SDS011;62850;42.428;25.618;2023-05-19T14:01:38;7.97;;;4.72;;
74415;SDS011;62850;42.428;25.618;2023-05-19T14:04:04;10.98;;;5.93;;
74415;SDS011;62850;42.428;25.618;2023-05-19T14:06:29;10.57;;;6.05;;
74415;SDS011;62850;42.428;25.618;2023-05-19T14:08:55;8.65;;;5.32;;
74415;SDS011;62850;42.428;25.618;2023-05-19T14:11:20;9.25;;;5.78;;
74415;SDS011;62850;42.428;25.618;2023-05-19T14:13:49;9.98;;;5.80;;
74415;SDS011;62850;42.428;25.618;2023-05-19T14:16:15;9.27;;;5.35;;
74415;SDS011;62850;42.428;25.618;2023-05-19T14:18:42;9.23;;;5.45;;
74415;SDS011;62850;42.428;25.618;2023-05-19T14:21:08;10.02;;;6.07;;
74415;SDS011;62850;42.428;25.618;2023-05-19T14:23:33;12.95;;;6.28;;
74415;SDS011;62850;42.428;25.618;2023-05-19T14:25:59;10.32;;;6.20;;
74415;SDS011;62850;42.428;25.618;2023-05-19T14:28:25;9.27;;;5.75;;
74415;SDS011;62850;42.428;25.618;2023-05-19T14:30:50;12.60;;;6.00;;
74415;SDS011;62850;42.428;25.618;2023-05-19T14:33:16;12.73;;;6.78;;
74415;SDS011;62850;42.428;25.618;2023-05-19T14:35:43;12.52;;;5.95;;
74415;SDS011;62850;42.428;25.618;2023-05-19T14:38:09;9.40;;;5.75;;
74415;SDS011;62850;42.428;25.618;2023-05-19T14:40:35;9.90;;;5.88;;
74415;SDS011;62850;42.428;25.618;2023-05-19T14:43:01;7.85;;;4.80;;
74415;SDS011;62850;42.428;25.618;2023-05-19T14:45:27;11.05;;;5.97;;
74415;SDS011;62850;42.428;25.618;2023-05-19T14:47:53;8.80;;;4.82;;
74415;SDS011;62850;42.428;25.618;2023-05-19T14:50:19;8.07;;;4.72;;
74415;SDS011;62850;42.428;25.618;2023-05-19T14:52:44;10.27;;;5.45;;
74415;SDS011;62850;42.428;25.618;2023-05-19T14:55:10;10.63;;;5.72;;
74415;SDS011;62850;42.428;25.618;2023-05-19T14:57:35;10.38;;;4.93;;
74415;SDS011;62850;42.428;25.618;2023-05-19T15:00:01;9.23;;;5.25;;